createdAt,value
2019-02-18T00:02:45.148Z,5.30
2019-02-18T00:07:38.830Z,6.40
2019-02-18T00:12:32.200Z,6.10
2019-02-18T00:17:25.891Z,6.27
2019-02-18T00:22:21.616Z,5.83
2019-02-18T00:27:12.635Z,6.63
2019-02-18T00:32:06.024Z,7.13
2019-02-18T00:36:59.383Z,7.17
2019-02-18T00:41:52.791Z,6.70
2019-02-18T00:46:46.167Z,7.70
2019-02-18T00:51:39.551Z,7.93
2019-02-18T00:56:32.921Z,7.93
2019-02-18T01:01:26.618Z,8.50
2019-02-18T01:06:19.985Z,8.33
2019-02-18T01:11:13.677Z,8.57
2019-02-18T01:16:07.053Z,8.20
2019-02-18T01:21:00.412Z,8.73
2019-02-18T01:25:53.783Z,8.30
2019-02-18T01:30:47.147Z,8.53
2019-02-18T01:35:40.519Z,7.83
2019-02-18T01:40:33.894Z,7.57
2019-02-18T01:45:27.335Z,8.07
2019-02-18T01:50:20.737Z,8.80
2019-02-18T01:55:14.116Z,8.13
2019-02-18T02:00:09.342Z,8.53
2019-02-18T02:05:02.999Z,9.03
2019-02-18T02:09:56.404Z,8.27
2019-02-18T02:14:50.071Z,7.23
2019-02-18T02:19:43.448Z,8.70
2019-02-18T02:24:36.823Z,7.93
2019-02-18T02:29:30.184Z,9.63
2019-02-18T02:34:23.664Z,8.20
2019-02-18T02:39:17.026Z,7.73
2019-02-18T02:44:10.409Z,8.87
2019-02-18T02:49:03.763Z,8.07
2019-02-18T02:53:57.398Z,8.63
2019-02-18T02:58:50.833Z,8.53
2019-02-18T03:03:44.211Z,8.47
2019-02-18T03:08:38.000Z,9.00
2019-02-18T03:13:31.374Z,8.33
2019-02-18T03:18:24.753Z,8.13
2019-02-18T03:23:18.127Z,9.33
2019-02-18T03:28:16.824Z,8.77
2019-02-18T03:33:10.738Z,8.47
2019-02-18T03:38:04.167Z,8.70
2019-02-18T03:42:57.584Z,8.80
2019-02-18T03:47:51.043Z,8.60
2019-02-18T03:52:44.714Z,9.37
2019-02-18T03:57:38.080Z,9.13
2019-02-18T04:02:31.460Z,9.77
2019-02-18T04:07:24.852Z,8.93
2019-02-18T04:12:18.533Z,9.00
2019-02-18T04:17:12.412Z,9.43
2019-02-18T04:22:07.015Z,10.00
2019-02-18T04:27:00.536Z,10.37
2019-02-18T04:31:54.275Z,10.13
2019-02-18T04:36:48.063Z,11.60
2019-02-18T04:41:41.592Z,12.90
2019-02-18T04:46:35.270Z,13.90
2019-02-18T04:51:28.710Z,14.13
2019-02-18T04:56:22.343Z,14.30
2019-02-18T05:01:16.053Z,13.63
2019-02-18T05:06:09.501Z,12.53
2019-02-18T05:11:03.409Z,12.57
2019-02-18T05:15:56.801Z,10.80
2019-02-18T05:20:50.180Z,7.90
2019-02-18T05:25:43.551Z,5.90
2019-02-18T05:32:06.645Z,4.53
2019-02-18T05:36:59.125Z,3.40
2019-02-18T05:48:05.316Z,3.27
2019-02-18T06:11:34.765Z,3.63
2019-02-18T06:16:50.339Z,2.87
2019-02-18T06:28:21.107Z,2.80
2019-02-18T07:09:33.620Z,3.47
2019-02-18T07:15:22.286Z,3.40
2019-02-18T07:20:42.019Z,3.70
2019-02-18T07:32:04.668Z,3.00
2019-02-18T07:37:17.488Z,3.00
2019-02-18T08:07:04.600Z,4.97
2019-02-18T08:23:41.447Z,4.90
2019-02-18T09:16:56.907Z,3.63
2019-02-18T09:58:15.160Z,4.00
2019-02-18T10:34:23.844Z,3.97
2019-02-18T10:39:42.391Z,3.80
2019-02-18T10:40:15.601Z,3.33
2019-02-18T11:10:23.075Z,4.10
2019-02-18T11:15:50.946Z,4.00
2019-02-18T11:28:29.713Z,4.23
2019-02-18T20:37:31.983Z,5.60
2019-02-18T20:42:27.705Z,7.27
2019-02-18T20:54:45.195Z,8.20
2019-02-18T21:06:16.797Z,7.77
2019-02-18T21:18:23.190Z,7.00
2019-02-18T21:23:57.321Z,6.67
2019-02-18T21:28:55.276Z,6.20
2019-02-18T21:34:36.040Z,7.67
2019-02-18T21:46:00.018Z,6.83
2019-02-18T21:56:44.972Z,7.00
2019-02-18T22:20:09.604Z,5.80
2019-02-18T22:25:41.398Z,5.13
2019-02-18T22:31:29.577Z,4.40
2019-02-18T22:49:43.349Z,3.70
2019-02-18T23:03:02.997Z,3.93
2019-02-18T23:15:10.956Z,2.80
2019-02-18T23:32:03.212Z,2.90
2019-02-18T23:43:47.311Z,2.50
2019-02-18T23:49:52.885Z,3.07
